sensor_id;sensor_type;location;lat;lon;timestamp;temperature;humidity
4908;DHT22;64375;51.540;7.364;2023-07-09T00:02:05;30.30;76.70
4908;DHT22;64375;51.540;7.364;2023-07-09T00:04:36;30.20;76.20
4908;DHT22;64375;51.540;7.364;2023-07-09T00:07:05;30.20;75.00
4908;DHT22;64375;51.540;7.364;2023-07-09T00:09:33;30.10;76.20
4908;DHT22;64375;51.540;7.364;2023-07-09T00:12:01;30.00;75.40
4908;DHT22;64375;51.540;7.364;2023-07-09T00:14:29;29.90;75.70
4908;DHT22;64375;51.540;7.364;2023-07-09T00:16:59;29.90;76.40
4908;DHT22;64375;51.540;7.364;2023-07-09T00:19:28;29.90;76.30
4908;DHT22;64375;51.540;7.364;2023-07-09T00:22:02;29.90;76.20
4908;DHT22;64375;51.540;7.364;2023-07-09T00:24:30;29.90;76.10
4908;DHT22;64375;51.540;7.364;2023-07-09T00:27:01;29.90;76.00
4908;DHT22;64375;51.540;7.364;2023-07-09T00:29:35;29.90;76.00
4908;DHT22;64375;51.540;7.364;2023-07-09T00:32:08;29.90;76.00
4908;DHT22;64375;51.540;7.364;2023-07-09T00:34:37;29.80;76.10
4908;DHT22;64375;51.540;7.364;2023-07-09T00:37:10;29.70;76.00
4908;DHT22;64375;51.540;7.364;2023-07-09T00:39:46;29.80;76.10
4908;DHT22;64375;51.540;7.364;2023-07-09T00:42:16;29.80;76.00
4908;DHT22;64375;51.540;7.364;2023-07-09T00:44:45;29.70;76.00
4908;DHT22;64375;51.540;7.364;2023-07-09T00:47:28;29.70;75.90
4908;DHT22;64375;51.540;7.364;2023-07-09T00:50:25;29.80;75.80
4908;DHT22;64375;51.540;7.364;2023-07-09T00:53:08;29.70;75.80
4908;DHT22;64375;51.540;7.364;2023-07-09T00:55:52;29.70;75.80
4908;DHT22;64375;51.540;7.364;2023-07-09T00:58:27;29.60;76.00
4908;DHT22;64375;51.540;7.364;2023-07-09T01:01:02;29.50;75.90
4908;DHT22;64375;51.540;7.364;2023-07-09T01:03:40;29.50;76.00
4908;DHT22;64375;51.540;7.364;2023-07-09T01:06:27;29.50;76.00
4908;DHT22;64375;51.540;7.364;2023-07-09T01:09:19;29.50;76.10
4908;DHT22;64375;51.540;7.364;2023-07-09T01:11:51;29.40;76.00
4908;DHT22;64375;51.540;7.364;2023-07-09T01:14:27;29.40;76.20
4908;DHT22;64375;51.540;7.364;2023-07-09T01:17:05;29.40;76.20
4908;DHT22;64375;51.540;7.364;2023-07-09T01:19:50;29.30;76.20
4908;DHT22;64375;51.540;7.364;2023-07-09T01:22:34;29.30;76.30
4908;DHT22;64375;51.540;7.364;2023-07-09T01:25:05;29.30;76.40
4908;DHT22;64375;51.540;7.364;2023-07-09T01:27:43;29.20;76.30
4908;DHT22;64375;51.540;7.364;2023-07-09T01:30:19;29.20;76.40
4908;DHT22;64375;51.540;7.364;2023-07-09T01:32:57;29.20;76.40
4908;DHT22;64375;51.540;7.364;2023-07-09T01:35:38;29.20;76.40
4908;DHT22;64375;51.540;7.364;2023-07-09T01:38:13;29.10;76.30
4908;DHT22;64375;51.540;7.364;2023-07-09T01:40:41;29.10;76.50
4908;DHT22;64375;51.540;7.364;2023-07-09T01:43:09;29.00;76.40
4908;DHT22;64375;51.540;7.364;2023-07-09T01:45:37;29.00;76.60
4908;DHT22;64375;51.540;7.364;2023-07-09T01:48:06;28.90;76.50
4908;DHT22;64375;51.540;7.364;2023-07-09T01:50:44;28.90;76.60
4908;DHT22;64375;51.540;7.364;2023-07-09T01:53:15;28.90;76.60
4908;DHT22;64375;51.540;7.364;2023-07-09T01:55:44;28.80;76.60
4908;DHT22;64375;51.540;7.364;2023-07-09T01:58:12;28.80;76.60
4908;DHT22;64375;51.540;7.364;2023-07-09T02:00:40;28.80;76.70
4908;DHT22;64375;51.540;7.364;2023-07-09T02:03:11;28.80;76.70
4908;DHT22;64375;51.540;7.364;2023-07-09T02:05:43;28.70;76.70
4908;DHT22;64375;51.540;7.364;2023-07-09T02:08:19;28.70;76.80
4908;DHT22;64375;51.540;7.364;2023-07-09T02:10:50;28.60;76.80
4908;DHT22;64375;51.540;7.364;2023-07-09T02:13:26;28.60;76.90
4908;DHT22;64375;51.540;7.364;2023-07-09T02:15:54;28.60;76.90
4908;DHT22;64375;51.540;7.364;2023-07-09T02:18:22;28.50;77.00
4908;DHT22;64375;51.540;7.364;2023-07-09T02:20:52;28.50;77.10
4908;DHT22;64375;51.540;7.364;2023-07-09T02:23:26;28.50;77.00
4908;DHT22;64375;51.540;7.364;2023-07-09T02:25:57;28.50;77.00
4908;DHT22;64375;51.540;7.364;2023-07-09T02:28:46;28.50;77.10
4908;DHT22;64375;51.540;7.364;2023-07-09T02:31:23;28.50;77.10
4908;DHT22;64375;51.540;7.364;2023-07-09T02:33:57;28.50;77.00
4908;DHT22;64375;51.540;7.364;2023-07-09T02:36:25;28.50;76.90
4908;DHT22;64375;51.540;7.364;2023-07-09T02:39:04;28.50;77.00
4908;DHT22;64375;51.540;7.364;2023-07-09T02:41:38;28.40;77.00
4908;DHT22;64375;51.540;7.364;2023-07-09T02:44:09;28.40;77.10
4908;DHT22;64375;51.540;7.364;2023-07-09T02:46:37;28.30;77.10
4908;DHT22;64375;51.540;7.364;2023-07-09T02:49:13;28.30;77.20
4908;DHT22;64375;51.540;7.364;2023-07-09T02:51:51;28.20;77.30
4908;DHT22;64375;51.540;7.364;2023-07-09T02:54:26;28.20;77.40
4908;DHT22;64375;51.540;7.364;2023-07-09T02:57:00;28.10;77.40
4908;DHT22;64375;51.540;7.364;2023-07-09T02:59:28;28.10;77.60
4908;DHT22;64375;51.540;7.364;2023-07-09T03:02:01;28.10;77.60
4908;DHT22;64375;51.540;7.364;2023-07-09T03:04:38;28.00;77.50
4908;DHT22;64375;51.540;7.364;2023-07-09T03:07:17;28.00;77.60
4908;DHT22;64375;51.540;7.364;2023-07-09T03:09:46;27.90;77.60
4908;DHT22;64375;51.540;7.364;2023-07-09T03:12:23;27.90;77.70
4908;DHT22;64375;51.540;7.364;2023-07-09T03:14:57;27.90;77.80
4908;DHT22;64375;51.540;7.364;2023-07-09T03:17:34;27.90;77.80
4908;DHT22;64375;51.540;7.364;2023-07-09T03:20:05;27.90;77.80
4908;DHT22;64375;51.540;7.364;2023-07-09T03:22:34;27.90;77.80
4908;DHT22;64375;51.540;7.364;2023-07-09T03:25:04;27.90;77.90
4908;DHT22;64375;51.540;7.364;2023-07-09T03:27:34;27.90;77.90
4908;DHT22;64375;51.540;7.364;2023-07-09T03:30:06;27.90;77.70
4908;DHT22;64375;51.540;7.364;2023-07-09T03:32:34;27.90;77.70
4908;DHT22;64375;51.540;7.364;2023-07-09T03:35:02;27.80;77.70
4908;DHT22;64375;51.540;7.364;2023-07-09T03:37:30;27.80;77.70
4908;DHT22;64375;51.540;7.364;2023-07-09T03:39:58;27.80;77.80
4908;DHT22;64375;51.540;7.364;2023-07-09T03:42:27;27.70;77.90
4908;DHT22;64375;51.540;7.364;2023-07-09T03:44:58;27.70;78.00
4908;DHT22;64375;51.540;7.364;2023-07-09T03:47:26;27.60;78.10
4908;DHT22;64375;51.540;7.364;2023-07-09T03:50:09;27.60;78.20
4908;DHT22;64375;51.540;7.364;2023-07-09T03:52:47;27.60;78.30
4908;DHT22;64375;51.540;7.364;2023-07-09T03:55:18;27.60;78.20
4908;DHT22;64375;51.540;7.364;2023-07-09T03:57:47;27.60;78.30
4908;DHT22;64375;51.540;7.364;2023-07-09T04:00:15;27.60;78.30
4908;DHT22;64375;51.540;7.364;2023-07-09T04:02:46;27.50;78.40
4908;DHT22;64375;51.540;7.364;2023-07-09T04:05:17;27.50;78.50
4908;DHT22;64375;51.540;7.364;2023-07-09T04:07:48;27.50;78.50
4908;DHT22;64375;51.540;7.364;2023-07-09T04:10:16;27.40;78.50
4908;DHT22;64375;51.540;7.364;2023-07-09T04:12:46;27.40;78.70
4908;DHT22;64375;51.540;7.364;2023-07-09T04:15:16;27.40;78.70
4908;DHT22;64375;51.540;7.364;2023-07-09T04:17:44;27.30;78.70
4908;DHT22;64375;51.540;7.364;2023-07-09T04:20:12;27.30;78.90
4908;DHT22;64375;51.540;7.364;2023-07-09T04:22:46;27.30;78.90
4908;DHT22;64375;51.540;7.364;2023-07-09T04:25:14;27.20;78.90
4908;DHT22;64375;51.540;7.364;2023-07-09T04:27:42;27.20;79.00
4908;DHT22;64375;51.540;7.364;2023-07-09T04:30:16;27.30;79.20
4908;DHT22;64375;51.540;7.364;2023-07-09T04:32:51;27.30;79.00
4908;DHT22;64375;51.540;7.364;2023-07-09T04:35:19;27.40;78.80
4908;DHT22;64375;51.540;7.364;2023-07-09T04:37:53;27.40;78.70
4908;DHT22;64375;51.540;7.364;2023-07-09T04:40:23;27.30;78.80
4908;DHT22;64375;51.540;7.364;2023-07-09T04:42:54;27.30;78.90
4908;DHT22;64375;51.540;7.364;2023-07-09T04:45:44;27.20;78.80
4908;DHT22;64375;51.540;7.364;2023-07-09T04:48:12;27.20;79.00
4908;DHT22;64375;51.540;7.364;2023-07-09T04:50:40;27.10;79.10
4908;DHT22;64375;51.540;7.364;2023-07-09T04:53:11;27.00;79.30
4908;DHT22;64375;51.540;7.364;2023-07-09T04:55:41;27.00;79.40
4908;DHT22;64375;51.540;7.364;2023-07-09T04:58:17;27.00;79.60
4908;DHT22;64375;51.540;7.364;2023-07-09T05:01:02;27.00;79.70
4908;DHT22;64375;51.540;7.364;2023-07-09T05:03:33;27.00;79.80
4908;DHT22;64375;51.540;7.364;2023-07-09T05:06:04;27.00;79.80
4908;DHT22;64375;51.540;7.364;2023-07-09T05:08:35;27.00;79.70
4908;DHT22;64375;51.540;7.364;2023-07-09T05:11:06;27.00;79.80
4908;DHT22;64375;51.540;7.364;2023-07-09T05:13:40;27.00;79.90
4908;DHT22;64375;51.540;7.364;2023-07-09T05:16:14;27.00;79.90
4908;DHT22;64375;51.540;7.364;2023-07-09T05:18:49;27.00;79.90
4908;DHT22;64375;51.540;7.364;2023-07-09T05:21:17;27.00;79.90
4908;DHT22;64375;51.540;7.364;2023-07-09T05:23:45;27.00;79.90
4908;DHT22;64375;51.540;7.364;2023-07-09T05:26:22;27.00;79.80
4908;DHT22;64375;51.540;7.364;2023-07-09T05:28:51;27.10;79.80
4908;DHT22;64375;51.540;7.364;2023-07-09T05:31:20;27.10;79.70
4908;DHT22;64375;51.540;7.364;2023-07-09T05:33:50;27.20;79.60
4908;DHT22;64375;51.540;7.364;2023-07-09T05:36:21;27.30;79.30
4908;DHT22;64375;51.540;7.364;2023-07-09T05:38:49;27.50;79.10
4908;DHT22;64375;51.540;7.364;2023-07-09T05:41:17;27.60;82.30
4908;DHT22;64375;51.540;7.364;2023-07-09T05:43:45;27.60;82.70
4908;DHT22;64375;51.540;7.364;2023-07-09T05:46:14;27.70;82.50
4908;DHT22;64375;51.540;7.364;2023-07-09T05:48:46;27.60;82.40
4908;DHT22;64375;51.540;7.364;2023-07-09T05:51:14;27.60;82.40
4908;DHT22;64375;51.540;7.364;2023-07-09T05:53:42;27.60;82.20
4908;DHT22;64375;51.540;7.364;2023-07-09T05:56:10;27.60;82.00
4908;DHT22;64375;51.540;7.364;2023-07-09T05:58:43;27.60;81.90
4908;DHT22;64375;51.540;7.364;2023-07-09T06:01:14;27.70;81.90
4908;DHT22;64375;51.540;7.364;2023-07-09T06:03:46;27.70;81.80
4908;DHT22;64375;51.540;7.364;2023-07-09T06:06:15;27.70;81.60
4908;DHT22;64375;51.540;7.364;2023-07-09T06:08:51;27.70;82.10
4908;DHT22;64375;51.540;7.364;2023-07-09T06:11:20;27.70;82.40
4908;DHT22;64375;51.540;7.364;2023-07-09T06:13:48;27.70;82.20
4908;DHT22;64375;51.540;7.364;2023-07-09T06:16:17;27.70;82.00
4908;DHT22;64375;51.540;7.364;2023-07-09T06:18:53;27.80;82.00
4908;DHT22;64375;51.540;7.364;2023-07-09T06:21:24;27.80;81.90
4908;DHT22;64375;51.540;7.364;2023-07-09T06:23:54;27.80;81.70
4908;DHT22;64375;51.540;7.364;2023-07-09T06:26:22;27.90;81.60
4908;DHT22;64375;51.540;7.364;2023-07-09T06:28:54;27.90;81.40
4908;DHT22;64375;51.540;7.364;2023-07-09T06:31:22;27.90;81.40
4908;DHT22;64375;51.540;7.364;2023-07-09T06:34:01;27.90;81.20
4908;DHT22;64375;51.540;7.364;2023-07-09T06:36:31;28.00;81.10
4908;DHT22;64375;51.540;7.364;2023-07-09T06:38:59;28.00;81.10
4908;DHT22;64375;51.540;7.364;2023-07-09T06:41:30;28.10;85.90
4908;DHT22;64375;51.540;7.364;2023-07-09T06:43:59;28.20;82.00
4908;DHT22;64375;51.540;7.364;2023-07-09T06:46:29;28.20;82.80
4908;DHT22;64375;51.540;7.364;2023-07-09T06:48:59;28.20;82.80
4908;DHT22;64375;51.540;7.364;2023-07-09T06:51:27;28.30;82.90
4908;DHT22;64375;51.540;7.364;2023-07-09T06:54:06;28.20;82.80
4908;DHT22;64375;51.540;7.364;2023-07-09T06:56:38;28.30;82.70
4908;DHT22;64375;51.540;7.364;2023-07-09T06:59:06;28.40;82.70
4908;DHT22;64375;51.540;7.364;2023-07-09T07:01:34;28.40;82.80
4908;DHT22;64375;51.540;7.364;2023-07-09T07:04:06;28.40;82.60
4908;DHT22;64375;51.540;7.364;2023-07-09T07:06:34;28.40;82.60
4908;DHT22;64375;51.540;7.364;2023-07-09T07:09:02;28.40;82.90
4908;DHT22;64375;51.540;7.364;2023-07-09T07:11:30;28.40;82.50
4908;DHT22;64375;51.540;7.364;2023-07-09T07:13:58;28.50;82.90
4908;DHT22;64375;51.540;7.364;2023-07-09T07:16:26;28.50;83.60
4908;DHT22;64375;51.540;7.364;2023-07-09T07:18:54;28.60;82.60
4908;DHT22;64375;51.540;7.364;2023-07-09T07:21:24;28.60;84.90
4908;DHT22;64375;51.540;7.364;2023-07-09T07:23:51;28.60;86.30
4908;DHT22;64375;51.540;7.364;2023-07-09T07:26:27;28.60;86.90
4908;DHT22;64375;51.540;7.364;2023-07-09T07:28:55;28.60;86.40
4908;DHT22;64375;51.540;7.364;2023-07-09T07:31:23;28.70;86.40
4908;DHT22;64375;51.540;7.364;2023-07-09T07:33:51;28.80;86.00
4908;DHT22;64375;51.540;7.364;2023-07-09T07:36:19;28.80;85.50
4908;DHT22;64375;51.540;7.364;2023-07-09T07:39:04;28.80;86.20
4908;DHT22;64375;51.540;7.364;2023-07-09T07:41:32;28.90;85.60
4908;DHT22;64375;51.540;7.364;2023-07-09T07:44:04;29.00;84.90
4908;DHT22;64375;51.540;7.364;2023-07-09T07:46:35;29.00;84.30
4908;DHT22;64375;51.540;7.364;2023-07-09T07:49:03;29.10;84.90
4908;DHT22;64375;51.540;7.364;2023-07-09T07:51:34;29.10;84.80
4908;DHT22;64375;51.540;7.364;2023-07-09T07:54:10;29.20;84.90
4908;DHT22;64375;51.540;7.364;2023-07-09T07:56:43;29.20;84.50
4908;DHT22;64375;51.540;7.364;2023-07-09T07:59:11;29.20;84.40
4908;DHT22;64375;51.540;7.364;2023-07-09T08:01:47;29.30;84.10
4908;DHT22;64375;51.540;7.364;2023-07-09T08:04:15;29.30;83.90
4908;DHT22;64375;51.540;7.364;2023-07-09T08:06:43;29.40;84.90
4908;DHT22;64375;51.540;7.364;2023-07-09T08:09:13;29.40;83.40
4908;DHT22;64375;51.540;7.364;2023-07-09T08:11:43;29.50;84.10
4908;DHT22;64375;51.540;7.364;2023-07-09T08:14:12;29.70;84.20
4908;DHT22;64375;51.540;7.364;2023-07-09T08:16:40;29.70;82.70
4908;DHT22;64375;51.540;7.364;2023-07-09T08:19:08;29.70;82.50
4908;DHT22;64375;51.540;7.364;2023-07-09T08:21:36;29.70;84.50
4908;DHT22;64375;51.540;7.364;2023-07-09T08:24:07;29.80;83.90
4908;DHT22;64375;51.540;7.364;2023-07-09T08:26:36;29.80;83.00
4908;DHT22;64375;51.540;7.364;2023-07-09T08:29:08;30.00;82.90
4908;DHT22;64375;51.540;7.364;2023-07-09T08:31:39;30.10;82.00
4908;DHT22;64375;51.540;7.364;2023-07-09T08:34:11;30.10;81.80
4908;DHT22;64375;51.540;7.364;2023-07-09T08:36:39;30.30;80.90
4908;DHT22;64375;51.540;7.364;2023-07-09T08:39:16;30.30;81.30
4908;DHT22;64375;51.540;7.364;2023-07-09T08:41:50;30.50;80.90
4908;DHT22;64375;51.540;7.364;2023-07-09T08:44:50;30.40;80.60
4908;DHT22;64375;51.540;7.364;2023-07-09T08:47:29;30.30;80.70
4908;DHT22;64375;51.540;7.364;2023-07-09T08:50:09;30.30;81.10
4908;DHT22;64375;51.540;7.364;2023-07-09T08:52:41;30.20;81.50
4908;DHT22;64375;51.540;7.364;2023-07-09T08:55:12;30.20;82.50
4908;DHT22;64375;51.540;7.364;2023-07-09T08:57:44;30.50;81.70
4908;DHT22;64375;51.540;7.364;2023-07-09T09:00:19;30.60;82.40
4908;DHT22;64375;51.540;7.364;2023-07-09T09:02:54;30.70;80.50
4908;DHT22;64375;51.540;7.364;2023-07-09T09:05:24;30.80;80.00
4908;DHT22;64375;51.540;7.364;2023-07-09T09:07:58;30.90;77.80
4908;DHT22;64375;51.540;7.364;2023-07-09T09:10:44;31.00;79.30
4908;DHT22;64375;51.540;7.364;2023-07-09T09:13:16;30.90;79.90
4908;DHT22;64375;51.540;7.364;2023-07-09T09:15:47;30.90;78.10
4908;DHT22;64375;51.540;7.364;2023-07-09T09:18:21;30.90;79.50
4908;DHT22;64375;51.540;7.364;2023-07-09T09:20:55;30.90;77.30
4908;DHT22;64375;51.540;7.364;2023-07-09T09:23:31;31.00;76.00
4908;DHT22;64375;51.540;7.364;2023-07-09T09:26:01;31.00;79.10
4908;DHT22;64375;51.540;7.364;2023-07-09T09:28:41;31.00;75.80
4908;DHT22;64375;51.540;7.364;2023-07-09T09:31:10;31.10;73.60
4908;DHT22;64375;51.540;7.364;2023-07-09T09:33:41;31.10;72.90
4908;DHT22;64375;51.540;7.364;2023-07-09T09:36:16;31.10;74.00
4908;DHT22;64375;51.540;7.364;2023-07-09T09:38:47;31.20;72.70
4908;DHT22;64375;51.540;7.364;2023-07-09T09:41:30;31.20;73.80
4908;DHT22;64375;51.540;7.364;2023-07-09T09:44:03;31.10;70.40
4908;DHT22;64375;51.540;7.364;2023-07-09T09:46:32;31.20;72.20
4908;DHT22;64375;51.540;7.364;2023-07-09T09:49:03;31.10;75.20
4908;DHT22;64375;51.540;7.364;2023-07-09T09:51:33;31.20;73.50
4908;DHT22;64375;51.540;7.364;2023-07-09T09:54:02;31.20;75.80
4908;DHT22;64375;51.540;7.364;2023-07-09T09:56:36;31.20;74.00
4908;DHT22;64375;51.540;7.364;2023-07-09T09:59:05;31.30;72.90
4908;DHT22;64375;51.540;7.364;2023-07-09T10:01:34;31.30;73.50
4908;DHT22;64375;51.540;7.364;2023-07-09T10:04:05;31.40;71.10
4908;DHT22;64375;51.540;7.364;2023-07-09T10:06:36;31.40;70.90
4908;DHT22;64375;51.540;7.364;2023-07-09T10:09:19;31.50;74.50
4908;DHT22;64375;51.540;7.364;2023-07-09T10:11:53;31.50;75.60
4908;DHT22;64375;51.540;7.364;2023-07-09T10:14:33;31.60;73.10
4908;DHT22;64375;51.540;7.364;2023-07-09T10:17:09;31.60;70.40
4908;DHT22;64375;51.540;7.364;2023-07-09T10:19:44;31.60;72.40
4908;DHT22;64375;51.540;7.364;2023-07-09T10:22:35;31.50;74.30
4908;DHT22;64375;51.540;7.364;2023-07-09T10:25:14;31.50;75.70
4908;DHT22;64375;51.540;7.364;2023-07-09T10:27:58;31.60;75.50
4908;DHT22;64375;51.540;7.364;2023-07-09T10:30:41;31.60;72.40
4908;DHT22;64375;51.540;7.364;2023-07-09T10:33:12;31.70;75.10
4908;DHT22;64375;51.540;7.364;2023-07-09T10:35:45;31.80;75.10
4908;DHT22;64375;51.540;7.364;2023-07-09T10:38:22;31.80;75.00
4908;DHT22;64375;51.540;7.364;2023-07-09T10:40:56;31.90;69.10
4908;DHT22;64375;51.540;7.364;2023-07-09T10:43:45;31.90;72.40
4908;DHT22;64375;51.540;7.364;2023-07-09T10:46:21;31.90;73.70
4908;DHT22;64375;51.540;7.364;2023-07-09T10:48:52;32.00;69.20
4908;DHT22;64375;51.540;7.364;2023-07-09T10:51:27;32.10;70.40
4908;DHT22;64375;51.540;7.364;2023-07-09T10:53:58;32.20;69.30
4908;DHT22;64375;51.540;7.364;2023-07-09T10:56:33;32.10;69.90
4908;DHT22;64375;51.540;7.364;2023-07-09T10:59:14;32.20;70.90
4908;DHT22;64375;51.540;7.364;2023-07-09T11:01:52;32.20;72.90
4908;DHT22;64375;51.540;7.364;2023-07-09T11:04:29;32.20;69.50
4908;DHT22;64375;51.540;7.364;2023-07-09T11:07:04;32.20;70.60
4908;DHT22;64375;51.540;7.364;2023-07-09T11:09:37;32.20;71.10
4908;DHT22;64375;51.540;7.364;2023-07-09T11:12:12;32.20;69.90
4908;DHT22;64375;51.540;7.364;2023-07-09T11:14:45;32.30;69.10
4908;DHT22;64375;51.540;7.364;2023-07-09T11:17:18;32.40;67.70
4908;DHT22;64375;51.540;7.364;2023-07-09T11:19:55;32.40;68.10
4908;DHT22;64375;51.540;7.364;2023-07-09T11:22:37;32.40;69.30
4908;DHT22;64375;51.540;7.364;2023-07-09T11:25:07;32.40;71.60
4908;DHT22;64375;51.540;7.364;2023-07-09T11:27:50;32.40;70.80
4908;DHT22;64375;51.540;7.364;2023-07-09T11:30:21;32.50;71.00
4908;DHT22;64375;51.540;7.364;2023-07-09T11:32:57;32.70;70.30
4908;DHT22;64375;51.540;7.364;2023-07-09T11:35:47;32.90;72.80
4908;DHT22;64375;51.540;7.364;2023-07-09T11:38:20;32.90;67.30
4908;DHT22;64375;51.540;7.364;2023-07-09T11:40:50;33.00;68.40
4908;DHT22;64375;51.540;7.364;2023-07-09T11:43:33;33.00;68.50
4908;DHT22;64375;51.540;7.364;2023-07-09T11:46:11;33.10;66.40
4908;DHT22;64375;51.540;7.364;2023-07-09T11:48:48;33.10;65.10
4908;DHT22;64375;51.540;7.364;2023-07-09T11:51:23;33.20;68.10
4908;DHT22;64375;51.540;7.364;2023-07-09T11:53:56;33.30;67.10
4908;DHT22;64375;51.540;7.364;2023-07-09T11:56:24;33.30;68.50
4908;DHT22;64375;51.540;7.364;2023-07-09T11:58:55;33.40;67.90
4908;DHT22;64375;51.540;7.364;2023-07-09T12:01:27;33.60;67.80
4908;DHT22;64375;51.540;7.364;2023-07-09T12:04:03;33.60;65.70
4908;DHT22;64375;51.540;7.364;2023-07-09T12:06:32;33.60;64.10
4908;DHT22;64375;51.540;7.364;2023-07-09T12:09:01;33.80;67.80
4908;DHT22;64375;51.540;7.364;2023-07-09T12:11:32;33.80;62.50
4908;DHT22;64375;51.540;7.364;2023-07-09T12:14:05;33.80;62.80
4908;DHT22;64375;51.540;7.364;2023-07-09T12:16:41;33.80;65.60
4908;DHT22;64375;51.540;7.364;2023-07-09T12:19:18;33.70;63.80
4908;DHT22;64375;51.540;7.364;2023-07-09T12:21:53;33.70;67.00
4908;DHT22;64375;51.540;7.364;2023-07-09T12:24:38;33.70;65.40
4908;DHT22;64375;51.540;7.364;2023-07-09T12:27:22;33.70;67.70
4908;DHT22;64375;51.540;7.364;2023-07-09T12:29:53;33.80;68.40
4908;DHT22;64375;51.540;7.364;2023-07-09T12:32:24;33.90;65.00
4908;DHT22;64375;51.540;7.364;2023-07-09T12:35:00;34.10;68.20
4908;DHT22;64375;51.540;7.364;2023-07-09T12:37:31;34.20;68.20
4908;DHT22;64375;51.540;7.364;2023-07-09T12:40:02;34.10;61.60
4908;DHT22;64375;51.540;7.364;2023-07-09T12:42:35;34.10;64.20
4908;DHT22;64375;51.540;7.364;2023-07-09T12:45:08;34.10;66.80
4908;DHT22;64375;51.540;7.364;2023-07-09T12:47:37;34.40;67.80
4908;DHT22;64375;51.540;7.364;2023-07-09T12:50:18;34.40;67.90
4908;DHT22;64375;51.540;7.364;2023-07-09T12:52:46;34.40;67.10
4908;DHT22;64375;51.540;7.364;2023-07-09T12:55:22;34.50;67.70
4908;DHT22;64375;51.540;7.364;2023-07-09T12:57:54;34.50;67.30
4908;DHT22;64375;51.540;7.364;2023-07-09T13:00:25;34.60;66.70
4908;DHT22;64375;51.540;7.364;2023-07-09T13:02:55;34.60;63.40
4908;DHT22;64375;51.540;7.364;2023-07-09T13:05:26;34.70;67.40
4908;DHT22;64375;51.540;7.364;2023-07-09T13:07:59;34.80;66.30
4908;DHT22;64375;51.540;7.364;2023-07-09T13:10:42;34.80;67.30
4908;DHT22;64375;51.540;7.364;2023-07-09T13:13:13;34.80;67.30
4908;DHT22;64375;51.540;7.364;2023-07-09T13:15:42;34.90;67.20
4908;DHT22;64375;51.540;7.364;2023-07-09T13:18:12;35.00;67.20
4908;DHT22;64375;51.540;7.364;2023-07-09T13:20:43;34.90;67.20
4908;DHT22;64375;51.540;7.364;2023-07-09T13:23:15;34.90;67.30
4908;DHT22;64375;51.540;7.364;2023-07-09T13:25:47;34.90;64.80
4908;DHT22;64375;51.540;7.364;2023-07-09T13:28:20;34.90;66.20
4908;DHT22;64375;51.540;7.364;2023-07-09T13:30:57;35.00;67.30
4908;DHT22;64375;51.540;7.364;2023-07-09T13:33:26;35.00;67.20
4908;DHT22;64375;51.540;7.364;2023-07-09T13:35:56;35.10;67.00
4908;DHT22;64375;51.540;7.364;2023-07-09T13:38:27;35.20;66.80
4908;DHT22;64375;51.540;7.364;2023-07-09T13:40:57;35.10;66.70
4908;DHT22;64375;51.540;7.364;2023-07-09T13:43:29;35.00;65.10
4908;DHT22;64375;51.540;7.364;2023-07-09T13:45:58;35.00;65.00
4908;DHT22;64375;51.540;7.364;2023-07-09T13:48:30;35.00;67.00
4908;DHT22;64375;51.540;7.364;2023-07-09T13:51:13;35.10;67.10
4908;DHT22;64375;51.540;7.364;2023-07-09T13:53:41;35.20;66.80
4908;DHT22;64375;51.540;7.364;2023-07-09T13:56:12;35.30;66.70
4908;DHT22;64375;51.540;7.364;2023-07-09T13:58:40;35.20;66.70
4908;DHT22;64375;51.540;7.364;2023-07-09T14:01:20;35.20;66.80
4908;DHT22;64375;51.540;7.364;2023-07-09T14:03:49;35.20;66.60
4908;DHT22;64375;51.540;7.364;2023-07-09T14:06:21;35.20;66.40
4908;DHT22;64375;51.540;7.364;2023-07-09T14:08:49;35.30;66.80
4908;DHT22;64375;51.540;7.364;2023-07-09T14:11:17;35.20;66.80
4908;DHT22;64375;51.540;7.364;2023-07-09T14:13:48;35.20;66.90
4908;DHT22;64375;51.540;7.364;2023-07-09T14:16:16;35.20;66.80
4908;DHT22;64375;51.540;7.364;2023-07-09T14:18:46;35.20;66.80
4908;DHT22;64375;51.540;7.364;2023-07-09T14:21:16;35.20;66.90
4908;DHT22;64375;51.540;7.364;2023-07-09T14:23:51;35.30;67.80
4908;DHT22;64375;51.540;7.364;2023-07-09T14:26:20;35.30;67.20
4908;DHT22;64375;51.540;7.364;2023-07-09T14:28:48;35.20;68.30
4908;DHT22;64375;51.540;7.364;2023-07-09T14:31:24;35.10;70.90
4908;DHT22;64375;51.540;7.364;2023-07-09T14:33:54;35.00;69.90
4908;DHT22;64375;51.540;7.364;2023-07-09T14:36:22;35.00;71.30
4908;DHT22;64375;51.540;7.364;2023-07-09T14:38:51;35.00;71.70
4908;DHT22;64375;51.540;7.364;2023-07-09T14:41:22;35.00;72.50
4908;DHT22;64375;51.540;7.364;2023-07-09T14:43:53;35.00;72.20
4908;DHT22;64375;51.540;7.364;2023-07-09T14:46:22;35.00;72.10
4908;DHT22;64375;51.540;7.364;2023-07-09T14:48:50;35.00;72.20
4908;DHT22;64375;51.540;7.364;2023-07-09T14:51:18;34.90;72.40
4908;DHT22;64375;51.540;7.364;2023-07-09T14:53:46;34.90;72.00
4908;DHT22;64375;51.540;7.364;2023-07-09T14:56:16;34.90;72.50
4908;DHT22;64375;51.540;7.364;2023-07-09T14:58:44;35.00;72.20
4908;DHT22;64375;51.540;7.364;2023-07-09T15:01:13;35.10;71.90
4908;DHT22;64375;51.540;7.364;2023-07-09T15:03:41;35.20;71.70
4908;DHT22;64375;51.540;7.364;2023-07-09T15:06:09;35.20;71.70
4908;DHT22;64375;51.540;7.364;2023-07-09T15:08:46;35.20;71.50
4908;DHT22;64375;51.540;7.364;2023-07-09T15:11:15;35.30;71.00
4908;DHT22;64375;51.540;7.364;2023-07-09T15:13:46;35.20;69.90
4908;DHT22;64375;51.540;7.364;2023-07-09T15:16:14;35.10;70.40
4908;DHT22;64375;51.540;7.364;2023-07-09T15:18:45;35.10;69.80
4908;DHT22;64375;51.540;7.364;2023-07-09T15:21:13;34.90;69.30
4908;DHT22;64375;51.540;7.364;2023-07-09T15:23:54;34.80;69.50
4908;DHT22;64375;51.540;7.364;2023-07-09T15:26:24;34.50;71.40
4908;DHT22;64375;51.540;7.364;2023-07-09T15:28:51;34.50;70.80
4908;DHT22;64375;51.540;7.364;2023-07-09T15:31:19;34.20;71.20
4908;DHT22;64375;51.540;7.364;2023-07-09T15:33:51;33.90;72.40
4908;DHT22;64375;51.540;7.364;2023-07-09T15:36:18;33.70;72.70
4908;DHT22;64375;51.540;7.364;2023-07-09T15:38:46;33.60;72.80
4908;DHT22;64375;51.540;7.364;2023-07-09T15:41:15;33.80;71.80
4908;DHT22;64375;51.540;7.364;2023-07-09T15:43:47;33.90;71.70
4908;DHT22;64375;51.540;7.364;2023-07-09T15:46:16;34.00;71.60
4908;DHT22;64375;51.540;7.364;2023-07-09T15:48:46;34.00;71.60
4908;DHT22;64375;51.540;7.364;2023-07-09T15:51:15;33.90;71.50
4908;DHT22;64375;51.540;7.364;2023-07-09T15:53:43;34.00;71.00
4908;DHT22;64375;51.540;7.364;2023-07-09T15:56:16;34.10;71.10
4908;DHT22;64375;51.540;7.364;2023-07-09T15:58:47;34.00;70.70
4908;DHT22;64375;51.540;7.364;2023-07-09T16:01:15;34.10;70.40
4908;DHT22;64375;51.540;7.364;2023-07-09T16:03:46;34.20;70.60
4908;DHT22;64375;51.540;7.364;2023-07-09T16:06:14;34.20;70.60
4908;DHT22;64375;51.540;7.364;2023-07-09T16:08:42;33.90;72.90
4908;DHT22;64375;51.540;7.364;2023-07-09T16:11:14;33.80;73.00
4908;DHT22;64375;51.540;7.364;2023-07-09T16:13:43;33.70;73.50
4908;DHT22;64375;51.540;7.364;2023-07-09T16:16:18;33.40;74.60
4908;DHT22;64375;51.540;7.364;2023-07-09T16:18:48;33.30;75.70